Maple Grove, Canada
Current Conditions -  °F | °C
As of 10:00 AM on Thursday 30 Oct 2014 (Local Time) from CYUL Reporting Station
Few Clouds Few Clouds  
Wind Chill: 37°   Ceiling: Unl
Heat Index: 43°   Visibility: 15mi
Dew Point: 32°   Wind: 12mph
Humidity: 66%   Direction: 310°NW
Pressure: 29.98"   Gusts: NA
Location:  45.32°N, 73.85°W
Report Text: CYUL 301400Z 31010KT 15SM FEW025 06/M00 A2998 RMK CU1 CU TR SLP152
Loading
Personal Weather Stations






























Interactive Weather Map
Tropical Storm Tracking
New forecast layout! Learn more

10-Day Weather Forecast

Advertisements
Track Severe Weather on mobile